METAR Data
IDs: Format: Raw Decoded Include TAF

Data at: 2032 UTC 02 Oct 2022

KSCH 021845Z 04016KT 15SM CLR 14/06 A3024
KSCH 021645Z 05010KT 15SM SCT038 OVC047 12/06 A3026
KSCH 021447Z 04014G20KT 15SM OVC036 11/06 A3025
KSCH 021352Z 04012G18KT 15SM OVC035 11/06 A3025
KSCH 021150Z 03012G18KT 15SM OVC033 09/04 A3021 RMK FIRST
KSCH 020055Z 03008G14KT 15SM SCT120 14/06 A3010 RMK LAST
KSCH 012347Z 04008KT 15SM OVC110 16/08 A3008
KSCH 012255Z 04004KT 15SM OVC110 16/09 A3008
KSCH 012155Z 03004KT 15SM OVC110 18/09 A3008
KSCH 012048Z 03004KT 15SM FEW070 BKN110 BKN200 19/07 A3008
KSCH 011855Z 03006KT 15SM FEW070 SCT200 19/06 A3009
KSCH 011751Z 04006KT 15SM FEW070 SCT200 18/07 A3010
KSCH 011652Z 04005KT 15SM CLR 16/08 A3013
KSCH 011548Z 05004KT 15SM CLR 14/07 A3014
KSCH 011445Z 03004KT 15SM CLR 11/11 A3016
KSCH 011346Z 00000KT 15SM CLR 09/09 A3017
KSCH 011246Z 04004KT 15SM CLR 09/09 A3017
KSCH 011147Z 00000KT 15SM CLR 08/08 A3019 RMK FIRST